Time;durP1;ratioP1;P1;durP2;ratioP2;P2;SDS_P1;SDS_P2;PMS_P1;PMS_P2;Temp;Humidity;BMP_temperature;BMP_pressure;BME280_temperature;BME280_humidity;BME280_pressure;Samples;Min_cycle;Max_cycle;Signal;HPM_P1;HPM_P2
2021/11/10 00:00:42;;;;;;;11.20;6.07;;;4.80;99.90;;;;;;5070627;28;20021;-47
2021/11/10 00:03:09;;;;;;;11.40;6.50;;;4.70;99.90;;;;;;5070388;28;20103;-50
2021/11/10 00:05:35;;;;;;;8.88;6.13;;;4.70;99.90;;;;;;5070268;28;20390;-48
2021/11/10 00:08:02;;;;;;;9.82;5.80;;;4.60;99.90;;;;;;5070166;28;20039;-48
2021/11/10 00:10:27;;;;;;;11.60;5.40;;;4.60;99.90;;;;;;5070588;28;20399;-48
2021/11/10 00:12:55;;;;;;;10.27;5.70;;;4.60;99.90;;;;;;5070187;28;20016;-47
2021/11/10 00:15:21;;;;;;;12.35;5.80;;;4.60;99.90;;;;;;5070397;28;20522;-45
2021/11/10 00:17:46;;;;;;;12.73;6.20;;;4.60;99.90;;;;;;5069883;28;20036;-47
2021/11/10 00:20:12;;;;;;;10.40;5.85;;;4.50;99.90;;;;;;5075106;28;20020;-48
2021/11/10 00:22:39;;;;;;;11.82;5.90;;;4.40;99.90;;;;;;5087812;28;20068;-48
2021/11/10 00:25:06;;;;;;;12.43;6.18;;;4.40;99.90;;;;;;5090466;28;20035;-48
2021/11/10 00:27:32;;;;;;;9.75;5.97;;;4.40;99.90;;;;;;5089671;28;20517;-46
2021/11/10 00:29:57;;;;;;;11.25;5.85;;;4.40;99.90;;;;;;5072610;28;20063;-48
2021/11/10 00:32:23;;;;;;;17.17;6.25;;;4.40;99.90;;;;;;5081846;28;20511;-48
2021/11/10 00:34:49;;;;;;;10.63;6.22;;;4.40;99.90;;;;;;5089261;28;20028;-47
2021/11/10 00:37:14;;;;;;;13.15;6.85;;;4.30;99.90;;;;;;5089528;28;20032;-47
2021/11/10 00:39:40;;;;;;;12.55;6.78;;;4.30;99.90;;;;;;5083445;28;20028;-49
2021/11/10 00:42:06;;;;;;;10.68;6.93;;;4.30;99.90;;;;;;5082944;28;20477;-48
2021/11/10 00:44:31;;;;;;;14.00;7.13;;;4.30;99.90;;;;;;5090443;28;20031;-50
2021/11/10 00:46:57;;;;;;;10.95;6.80;;;4.30;99.90;;;;;;5089881;28;20439;-48
2021/11/10 00:49:23;;;;;;;17.13;7.57;;;4.30;99.90;;;;;;5090125;28;20274;-45
2021/11/10 00:51:48;;;;;;;11.40;6.05;;;4.40;99.90;;;;;;5090470;28;20043;-48
2021/11/10 00:54:14;;;;;;;16.65;7.22;;;4.40;99.90;;;;;;5090048;28;20066;-48
2021/11/10 00:56:40;;;;;;;9.80;6.10;;;4.40;99.90;;;;;;5090297;28;20394;-48
2021/11/10 00:59:06;;;;;;;16.30;7.07;;;4.30;99.90;;;;;;5090105;28;20020;-45
2021/11/10 01:01:31;;;;;;;15.38;6.43;;;4.30;99.90;;;;;;5082055;28;20029;-45
2021/11/10 01:03:57;;;;;;;9.10;5.38;;;4.20;99.90;;;;;;5086955;28;20386;-45
2021/11/10 01:06:23;;;;;;;16.77;7.97;;;4.20;99.90;;;;;;5070248;28;20096;-45
2021/11/10 01:08:48;;;;;;;16.00;8.20;;;4.20;99.90;;;;;;5069492;28;20028;-45
2021/11/10 01:11:15;;;;;;;13.05;7.45;;;4.20;99.90;;;;;;5071512;28;20016;-45
2021/11/10 01:13:41;;;;;;;9.45;6.65;;;4.20;99.90;;;;;;5081447;28;20027;-48
2021/11/10 01:16:06;;;;;;;13.95;6.70;;;4.10;99.90;;;;;;5088514;28;20024;-45
2021/11/10 01:18:32;;;;;;;16.45;7.70;;;4.10;99.90;;;;;;5089392;28;20097;-46
2021/11/10 01:20:58;;;;;;;16.77;7.35;;;4.00;99.90;;;;;;5089764;28;20028;-46
2021/11/10 01:23:23;;;;;;;18.70;7.00;;;4.10;99.90;;;;;;5088516;28;20088;-45
2021/11/10 01:25:49;;;;;;;14.40;7.40;;;4.00;99.90;;;;;;5089266;28;20478;-48
2021/11/10 01:28:15;;;;;;;15.18;7.32;;;4.00;99.90;;;;;;5087461;28;20025;-46
2021/11/10 01:30:40;;;;;;;13.82;7.80;;;3.90;99.90;;;;;;5079376;28;20073;-47
2021/11/10 01:33:06;;;;;;;13.50;7.30;;;4.00;99.90;;;;;;5082275;28;20031;-45
2021/11/10 01:35:32;;;;;;;11.35;6.75;;;4.00;99.90;;;;;;5087295;28;20489;-45
2021/11/10 01:37:58;;;;;;;14.75;7.70;;;3.90;99.90;;;;;;5080585;28;20016;-46
2021/11/10 01:40:26;;;;;;;12.73;7.65;;;3.90;99.90;;;;;;5089249;28;20040;-46
2021/11/10 01:42:52;;;;;;;15.07;7.90;;;3.90;99.90;;;;;;5089204;28;20068;-46
2021/11/10 01:45:19;;;;;;;15.65;7.75;;;3.90;99.90;;;;;;5089132;28;20475;-46
2021/11/10 01:47:45;;;;;;;16.75;7.55;;;3.90;99.90;;;;;;5088658;28;20115;-46
2021/11/10 01:50:15;;;;;;;13.75;8.07;;;4.00;99.90;;;;;;5089027;28;20039;-46
2021/11/10 01:52:44;;;;;;;17.70;7.72;;;4.00;99.90;;;;;;5088981;28;20028;-46
2021/11/10 01:55:10;;;;;;;14.00;7.55;;;4.00;99.90;;;;;;5089082;28;20035;-46
2021/11/10 01:57:37;;;;;;;12.50;6.95;;;4.00;99.90;;;;;;5077569;28;20120;-46
2021/11/10 02:00:16;;;;;;;13.60;7.68;;;4.00;99.90;;;;;;5089032;28;20066;-46
2021/11/10 02:02:42;;;;;;;18.17;7.53;;;3.90;99.90;;;;;;5088628;28;20047;-46
2021/11/10 02:05:10;;;;;;;14.23;7.75;;;3.90;99.90;;;;;;5088900;28;20020;-48
2021/11/10 02:07:36;;;;;;;14.30;7.40;;;3.80;99.90;;;;;;5088453;28;20031;-47
2021/11/10 02:10:03;;;;;;;22.05;8.60;;;3.80;99.90;;;;;;5088758;28;20027;-46
2021/11/10 02:12:30;;;;;;;21.58;8.30;;;3.80;99.90;;;;;;5087481;28;20020;-47
2021/11/10 02:14:55;;;;;;;17.50;8.25;;;3.80;99.90;;;;;;5088753;28;20035;-48
2021/11/10 02:17:21;;;;;;;16.90;9.65;;;3.80;99.90;;;;;;5088183;28;20036;-49
2021/11/10 02:19:47;;;;;;;17.50;9.95;;;3.80;99.90;;;;;;5088628;28;20503;-49
2021/11/10 02:22:16;;;;;;;18.13;9.77;;;3.80;99.90;;;;;;5088742;28;20035;-47
2021/11/10 02:24:43;;;;;;;16.95;9.38;;;3.80;99.90;;;;;;5088547;28;20021;-46
2021/11/10 02:27:16;;;;;;;17.77;7.90;;;3.70;99.90;;;;;;5081687;28;20024;-47
2021/11/10 02:29:42;;;;;;;15.23;8.20;;;3.70;99.90;;;;;;5070168;28;20028;-46
2021/11/10 02:32:12;;;;;;;13.25;7.57;;;3.60;99.90;;;;;;5068381;28;20111;-47
2021/11/10 02:34:39;;;;;;;14.85;7.35;;;3.60;99.90;;;;;;5067178;28;20024;-47
2021/11/10 02:37:05;;;;;;;12.32;7.13;;;3.60;99.90;;;;;;5071496;28;20028;-47
2021/11/10 02:39:31;;;;;;;12.48;7.43;;;3.60;99.90;;;;;;5067039;28;20060;-47
2021/11/10 02:41:57;;;;;;;15.10;8.20;;;3.60;99.90;;;;;;5072264;28;20389;-47
2021/11/10 02:44:23;;;;;;;16.52;8.75;;;3.60;99.90;;;;;;5065303;28;20264;-46
2021/11/10 02:46:51;;;;;;;18.63;9.13;;;3.60;99.90;;;;;;5061494;28;20032;-45
2021/11/10 02:49:18;;;;;;;15.80;8.82;;;3.60;99.90;;;;;;5062274;28;20072;-47
2021/11/10 02:52:09;;;;;;;15.95;8.15;;;3.60;99.90;;;;;;5061001;28;20021;-46
2021/11/10 02:54:39;;;;;;;19.35;8.98;;;3.60;99.90;;;;;;5067479;28;20024;-46
2021/11/10 02:57:07;;;;;;;16.20;9.23;;;3.60;99.90;;;;;;5052145;28;20039;-45
2021/11/10 02:59:33;;;;;;;21.67;8.77;;;3.50;99.90;;;;;;5051911;28;20029;-45
2021/11/10 03:02:00;;;;;;;18.23;8.80;;;3.50;99.90;;;;;;5080184;28;20033;-46
2021/11/10 03:04:46;;;;;;;17.27;9.02;;;3.50;99.90;;;;;;5072000;28;20028;-47
2021/11/10 03:07:13;;;;;;;16.15;8.80;;;3.50;99.90;;;;;;5071226;28;20241;-47
2021/11/10 03:09:40;;;;;;;18.83;8.70;;;3.40;99.90;;;;;;5070631;28;20048;-45
2021/11/10 03:12:07;;;;;;;15.73;8.98;;;3.40;99.90;;;;;;5071794;28;20028;-46
2021/11/10 03:14:35;;;;;;;20.17;8.85;;;3.40;99.90;;;;;;5071350;28;20074;-48
2021/11/10 03:17:05;;;;;;;17.70;9.05;;;3.40;99.90;;;;;;5071000;28;20032;-48
2021/11/10 03:19:31;;;;;;;17.40;8.30;;;3.40;99.90;;;;;;5071712;28;20021;-46
2021/11/10 03:21:56;;;;;;;16.85;8.43;;;3.40;99.90;;;;;;5074011;28;20047;-48
2021/11/10 03:24:22;;;;;;;17.02;8.32;;;3.40;99.90;;;;;;5079827;28;20021;-47
2021/11/10 03:26:47;;;;;;;13.35;7.32;;;3.30;99.90;;;;;;5085647;28;20470;-46
2021/11/10 03:29:13;;;;;;;13.70;7.35;;;3.20;99.90;;;;;;5078627;28;20104;-47
2021/11/10 03:31:39;;;;;;;16.60;7.93;;;3.20;99.90;;;;;;5068418;28;20020;-48
2021/11/10 03:34:07;;;;;;;13.55;8.43;;;3.20;99.90;;;;;;5071315;28;20029;-46
2021/11/10 03:36:33;;;;;;;13.40;7.40;;;3.20;99.90;;;;;;5071172;28;20024;-46
2021/11/10 03:38:59;;;;;;;13.05;8.45;;;3.10;99.90;;;;;;5070890;28;20099;-46
2021/11/10 03:41:25;;;;;;;13.50;7.40;;;3.10;99.90;;;;;;5070960;28;20108;-48
2021/11/10 03:43:51;;;;;;;17.80;9.27;;;3.10;99.90;;;;;;5071013;28;20052;-46
2021/11/10 03:46:18;;;;;;;15.90;8.55;;;3.10;99.90;;;;;;5075101;28;20082;-48
2021/11/10 03:48:44;;;;;;;22.48;8.85;;;3.10;99.90;;;;;;5088654;28;20038;-46
2021/11/10 03:51:10;;;;;;;13.98;8.40;;;3.10;99.90;;;;;;5090749;28;20039;-48
2021/11/10 03:53:36;;;;;;;16.27;8.00;;;3.00;99.90;;;;;;5081533;28;20024;-46
2021/11/10 03:56:02;;;;;;;17.90;8.27;;;3.00;99.90;;;;;;5057186;28;20054;-47
2021/11/10 03:58:27;;;;;;;16.67;8.25;;;3.00;99.90;;;;;;5058934;28;20023;-47
2021/11/10 04:00:53;;;;;;;17.95;8.88;;;3.00;99.90;;;;;;5067511;28;20108;-47
2021/11/10 04:03:18;;;;;;;17.75;7.93;;;2.90;99.90;;;;;;5070705;28;20020;-46
2021/11/10 04:05:44;;;;;;;17.05;7.93;;;2.90;99.90;;;;;;5070506;28;20029;-46
2021/11/10 04:08:10;;;;;;;17.58;9.40;;;2.90;99.90;;;;;;5070394;28;20074;-49
2021/11/10 04:10:37;;;;;;;15.02;8.30;;;2.90;99.90;;;;;;5070286;28;20036;-47
2021/11/10 04:13:03;;;;;;;16.50;7.85;;;2.90;99.90;;;;;;5070316;28;20050;-49
2021/11/10 04:15:28;;;;;;;14.75;9.18;;;2.90;99.90;;;;;;5076875;28;20148;-46
2021/11/10 04:17:54;;;;;;;16.88;8.73;;;2.90;99.90;;;;;;5081323;28;20431;-47
2021/11/10 04:20:19;;;;;;;16.00;8.40;;;2.90;99.90;;;;;;5090447;28;20028;-46
2021/11/10 04:22:46;;;;;;;16.95;9.05;;;2.80;99.90;;;;;;5090676;28;20027;-46
2021/11/10 04:25:12;;;;;;;16.35;8.15;;;2.80;99.90;;;;;;5088858;28;20035;-49
2021/11/10 04:27:37;;;;;;;21.77;9.85;;;2.80;99.90;;;;;;5089541;28;20016;-48
2021/11/10 04:30:04;;;;;;;17.10;8.40;;;2.80;99.90;;;;;;5081508;28;20028;-46
2021/11/10 04:32:30;;;;;;;14.93;8.63;;;2.80;99.90;;;;;;5073395;28;20033;-49
2021/11/10 04:34:55;;;;;;;16.80;8.10;;;2.80;99.90;;;;;;5068481;28;20031;-47
2021/11/10 04:37:21;;;;;;;18.48;9.10;;;2.70;99.90;;;;;;5069147;28;20032;-46
2021/11/10 04:39:46;;;;;;;15.75;8.00;;;2.70;99.90;;;;;;5069847;28;20387;-47
2021/11/10 04:42:12;;;;;;;18.52;9.80;;;2.70;99.90;;;;;;5069672;28;20021;-47
2021/11/10 04:44:37;;;;;;;16.80;8.52;;;2.70;99.90;;;;;;5069694;28;20083;-47
2021/11/10 04:47:04;;;;;;;15.45;8.43;;;2.60;99.90;;;;;;5069091;28;20021;-47
2021/11/10 04:49:30;;;;;;;15.52;7.93;;;2.60;99.90;;;;;;5069600;28;20029;-47
2021/11/10 04:52:05;;;;;;;18.85;8.73;;;2.60;99.90;;;;;;5069556;28;20026;-47
2021/11/10 04:54:31;;;;;;;15.63;7.63;;;2.60;99.90;;;;;;5069608;28;20031;-47
2021/11/10 04:56:58;;;;;;;20.50;9.00;;;2.60;99.90;;;;;;5069180;28;20071;-47
2021/11/10 04:59:23;;;;;;;20.65;10.10;;;2.60;99.90;;;;;;5065352;28;20094;-47
2021/11/10 05:02:23;;;;;;;21.20;9.45;;;2.60;99.90;;;;;;5077351;28;20025;-47
2021/11/10 05:04:36;;;;;;;12.65;7.85;;;2.60;99.90;;;;;;5089562;28;20085;-48
2021/11/10 05:07:02;;;;;;;18.85;8.55;;;2.50;99.90;;;;;;5089708;28;20058;-46
2021/11/10 05:09:28;;;;;;;17.75;8.15;;;2.50;99.90;;;;;;5090056;28;20042;-46
2021/11/10 05:11:54;;;;;;;17.73;9.15;;;2.40;99.90;;;;;;5089997;28;20028;-46
2021/11/10 05:14:20;;;;;;;20.45;8.63;;;2.40;99.90;;;;;;5090090;28;20032;-47
2021/11/10 05:16:46;;;;;;;18.40;8.43;;;2.40;99.90;;;;;;5089693;28;20020;-46
2021/11/10 05:19:11;;;;;;;19.58;9.25;;;2.40;99.90;;;;;;5089405;28;20028;-46
2021/11/10 05:21:37;;;;;;;20.65;10.32;;;2.40;99.90;;;;;;5089579;28;20387;-46
2021/11/10 05:24:03;;;;;;;16.63;9.40;;;2.50;99.90;;;;;;5089624;28;20278;-47
2021/11/10 05:26:29;;;;;;;19.33;8.63;;;2.40;99.90;;;;;;5089797;28;20132;-48
2021/11/10 05:28:54;;;;;;;15.98;8.50;;;2.30;99.90;;;;;;5088605;28;20024;-46
2021/11/10 05:31:21;;;;;;;19.77;8.98;;;2.30;99.90;;;;;;5073617;28;20022;-46
2021/11/10 05:33:46;;;;;;;15.00;8.40;;;2.30;99.90;;;;;;5087694;28;20512;-47
2021/11/10 05:36:12;;;;;;;16.42;8.60;;;2.30;99.90;;;;;;5089185;28;20032;-48
2021/11/10 05:38:37;;;;;;;14.40;8.20;;;2.20;99.90;;;;;;5088367;28;20024;-47
2021/11/10 05:41:03;;;;;;;17.00;8.02;;;2.30;99.90;;;;;;5088817;28;20513;-49
2021/11/10 05:43:29;;;;;;;18.00;8.23;;;2.30;99.90;;;;;;5088721;28;20042;-47
2021/11/10 05:45:55;;;;;;;20.00;9.25;;;2.30;99.90;;;;;;5088946;28;20466;-47
2021/11/10 05:48:20;;;;;;;15.77;8.82;;;2.20;99.90;;;;;;5088269;28;20030;-48
2021/11/10 05:50:46;;;;;;;25.85;12.20;;;2.20;99.90;;;;;;5088814;28;20385;-48
2021/11/10 05:53:12;;;;;;;16.40;8.95;;;2.20;99.90;;;;;;5089108;28;20032;-47
2021/11/10 05:55:40;;;;;;;18.70;9.90;;;2.30;99.90;;;;;;5087346;28;20075;-49
2021/11/10 05:58:06;;;;;;;20.05;8.88;;;2.20;99.90;;;;;;5088325;28;20020;-49
2021/11/10 06:00:32;;;;;;;16.50;8.02;;;2.20;99.90;;;;;;5074907;28;20040;-47
2021/11/10 06:02:57;;;;;;;17.60;8.73;;;2.20;99.90;;;;;;5087213;28;20141;-50
2021/11/10 06:05:23;;;;;;;15.75;8.88;;;2.20;99.90;;;;;;5088616;28;20469;-48
2021/11/10 06:07:49;;;;;;;18.75;9.43;;;2.20;99.90;;;;;;5088050;28;20016;-50
2021/11/10 06:10:17;;;;;;;20.02;8.98;;;2.20;99.90;;;;;;5091701;28;20024;-51
2021/11/10 06:12:44;;;;;;;16.13;9.48;;;2.20;99.90;;;;;;5090036;28;20075;-49
2021/11/10 06:15:10;;;;;;;18.00;9.60;;;2.20;99.90;;;;;;5056776;28;20032;-51
2021/11/10 06:17:36;;;;;;;19.55;10.77;;;2.10;99.90;;;;;;5065500;28;20306;-48
2021/11/10 06:20:02;;;;;;;21.70;10.35;;;2.10;99.90;;;;;;5063417;28;20066;-52
2021/11/10 06:22:29;;;;;;;12.88;7.97;;;2.10;99.90;;;;;;5080638;28;20043;-49
2021/11/10 06:24:55;;;;;;;18.83;9.95;;;2.10;99.90;;;;;;5075318;28;20387;-49
2021/11/10 06:27:20;;;;;;;15.13;9.13;;;2.20;99.90;;;;;;5081838;28;20035;-49
2021/11/10 06:29:46;;;;;;;21.65;9.88;;;2.20;99.90;;;;;;5077750;28;20029;-49
2021/11/10 06:32:12;;;;;;;18.80;10.15;;;2.30;99.90;;;;;;5079850;28;20025;-49
2021/11/10 06:34:37;;;;;;;16.92;9.15;;;2.30;99.90;;;;;;5074538;28;20162;-49
2021/11/10 06:37:03;;;;;;;16.88;8.88;;;2.30;99.90;;;;;;5064943;28;20029;-49
2021/11/10 06:39:29;;;;;;;17.67;9.32;;;2.30;99.90;;;;;;5052548;28;20406;-50
2021/11/10 06:41:55;;;;;;;18.45;9.00;;;2.30;99.90;;;;;;5085564;28;20035;-49
2021/11/10 06:44:20;;;;;;;17.27;8.13;;;2.20;99.90;;;;;;5094753;28;20458;-51
2021/11/10 06:46:46;;;;;;;20.40;11.48;;;2.20;99.90;;;;;;5093598;28;20039;-50
2021/11/10 06:49:11;;;;;;;21.98;11.07;;;2.20;99.90;;;;;;5080722;28;20450;-48
2021/11/10 06:51:38;;;;;;;17.23;10.43;;;2.20;99.90;;;;;;5080673;28;20021;-51
2021/11/10 06:54:04;;;;;;;18.80;9.32;;;2.30;99.90;;;;;;5085922;28;20121;-49
2021/11/10 06:56:29;;;;;;;16.80;9.07;;;2.40;99.90;;;;;;5094281;28;20020;-50
2021/11/10 06:58:55;;;;;;;18.95;9.63;;;2.40;99.90;;;;;;5094700;28;20024;-49
2021/11/10 07:01:21;;;;;;;16.27;8.95;;;2.40;99.90;;;;;;5095043;28;20046;-50
2021/11/10 07:03:47;;;;;;;18.25;9.75;;;2.40;99.90;;;;;;5069478;28;20029;-49
2021/11/10 07:06:12;;;;;;;16.70;9.32;;;2.30;99.90;;;;;;5083574;28;20080;-51
2021/11/10 07:08:38;;;;;;;15.65;8.88;;;2.40;99.90;;;;;;5079167;28;20046;-49
2021/11/10 07:11:04;;;;;;;18.15;9.25;;;2.40;99.90;;;;;;5074401;28;20023;-49
2021/11/10 07:13:29;;;;;;;18.42;9.65;;;2.40;99.90;;;;;;5075476;28;20037;-49
2021/11/10 07:15:55;;;;;;;19.23;9.07;;;2.40;99.90;;;;;;5065701;28;20487;-50
2021/11/10 07:18:20;;;;;;;16.45;10.27;;;2.40;99.90;;;;;;5078564;28;20040;-51
2021/11/10 07:20:46;;;;;;;18.15;8.65;;;2.50;99.90;;;;;;5094729;28;20039;-51
2021/11/10 07:23:12;;;;;;;15.93;8.90;;;2.50;99.90;;;;;;5053739;28;20311;-50
2021/11/10 07:25:37;;;;;;;19.73;9.45;;;2.50;99.90;;;;;;5076549;28;20021;-50
2021/11/10 07:28:03;;;;;;;17.33;8.90;;;2.50;99.90;;;;;;5086882;28;20035;-51
2021/11/10 07:30:29;;;;;;;21.27;11.07;;;2.50;99.90;;;;;;5060727;28;20021;-48
2021/11/10 07:32:54;;;;;;;18.90;9.57;;;2.60;99.90;;;;;;5082071;28;20024;-49
2021/11/10 07:35:20;;;;;;;18.17;9.70;;;2.70;99.90;;;;;;5070489;28;20029;-49
2021/11/10 07:37:47;;;;;;;19.42;10.82;;;2.70;99.90;;;;;;5070066;28;20091;-49
2021/11/10 07:40:15;;;;;;;18.40;9.32;;;2.80;99.90;;;;;;5054941;28;20036;-48
2021/11/10 07:42:41;;;;;;;23.00;10.27;;;2.90;99.90;;;;;;5049637;28;20079;-48
2021/11/10 07:45:10;;;;;;;19.75;9.68;;;2.90;99.90;;;;;;5057331;28;20024;-50
2021/11/10 07:47:45;;;;;;;17.20;10.35;;;3.00;99.90;;;;;;5070040;28;20126;-49
2021/11/10 07:50:17;;;;;;;20.23;9.60;;;3.00;99.90;;;;;;5051620;28;20406;-51
2021/11/10 07:52:43;;;;;;;20.85;11.25;;;3.10;99.90;;;;;;5067768;28;20028;-50
2021/11/10 07:55:09;;;;;;;18.63;9.52;;;3.30;99.90;;;;;;5069431;28;20029;-49
2021/11/10 07:57:36;;;;;;;22.00;11.57;;;3.40;99.90;;;;;;5070326;28;20489;-48
2021/11/10 08:00:09;;;;;;;20.70;11.75;;;3.60;99.90;;;;;;5065599;28;20033;-49
2021/11/10 08:02:34;;;;;;;22.77;11.25;;;3.70;99.90;;;;;;5069526;28;20024;-49
2021/11/10 08:05:00;;;;;;;19.13;10.63;;;3.90;99.90;;;;;;5069189;28;20047;-49
2021/11/10 08:07:26;;;;;;;15.70;11.52;;;4.10;99.90;;;;;;5077836;28;20029;-49
2021/11/10 08:09:51;;;;;;;16.85;10.07;;;4.20;99.90;;;;;;5078977;28;20916;-50
2021/11/10 08:12:17;;;;;;;20.63;9.82;;;4.30;99.90;;;;;;5073467;28;20146;-49
2021/11/10 08:14:42;;;;;;;15.90;9.10;;;4.50;99.90;;;;;;5060875;28;20120;-50
2021/11/10 08:17:08;;;;;;;16.83;8.25;;;4.60;99.90;;;;;;5069124;28;20043;-51
2021/11/10 08:19:33;;;;;;;19.38;10.30;;;4.70;99.90;;;;;;5070888;28;20024;-49
2021/11/10 08:21:59;;;;;;;15.65;8.45;;;4.80;99.90;;;;;;5082064;28;20486;-49
2021/11/10 08:24:26;;;;;;;16.70;9.30;;;5.00;99.90;;;;;;5088548;28;20024;-51
2021/11/10 08:26:52;;;;;;;14.70;8.35;;;5.20;99.90;;;;;;5089875;28;20016;-50
2021/11/10 08:29:18;;;;;;;12.90;8.55;;;5.40;99.90;;;;;;5076642;28;20031;-49
2021/11/10 08:31:43;;;;;;;13.75;8.27;;;5.50;99.90;;;;;;5069258;28;20425;-50
2021/11/10 08:34:09;;;;;;;15.25;7.55;;;5.70;99.90;;;;;;5062083;28;20024;-51
2021/11/10 08:36:34;;;;;;;14.50;8.05;;;5.80;99.90;;;;;;5073655;28;20012;-50
2021/11/10 08:39:00;;;;;;;13.75;7.20;;;5.90;99.90;;;;;;5060592;28;20035;-49
2021/11/10 08:41:25;;;;;;;10.57;6.70;;;6.00;99.90;;;;;;5071732;28;20028;-51
2021/11/10 08:43:51;;;;;;;8.15;6.13;;;6.10;99.90;;;;;;5076301;28;20468;-49
2021/11/10 08:46:20;;;;;;;14.30;7.57;;;6.20;99.90;;;;;;5052978;28;20019;-50
2021/11/10 08:48:47;;;;;;;10.63;7.05;;;6.30;99.90;;;;;;5051651;28;20033;-51
2021/11/10 08:51:13;;;;;;;10.77;6.43;;;6.40;99.90;;;;;;5060104;28;20021;-51
2021/11/10 08:53:40;;;;;;;10.65;6.45;;;6.50;99.90;;;;;;5058616;28;20062;-49
2021/11/10 08:56:06;;;;;;;10.05;6.03;;;6.60;99.90;;;;;;5058193;28;20107;-51
2021/11/10 08:58:32;;;;;;;10.93;6.15;;;6.60;99.90;;;;;;5058282;28;20112;-49
2021/11/10 09:00:58;;;;;;;10.77;5.90;;;6.70;99.90;;;;;;5051943;28;20090;-51
2021/11/10 09:03:25;;;;;;;10.43;6.90;;;6.70;99.90;;;;;;5056129;28;20082;-48
2021/11/10 09:05:51;;;;;;;12.77;6.63;;;6.90;99.90;;;;;;5067414;28;20056;-51
2021/11/10 09:08:19;;;;;;;15.23;6.95;;;7.00;99.90;;;;;;5064570;28;20660;-48
2021/11/10 09:10:44;;;;;;;11.98;6.53;;;7.10;99.90;;;;;;5065257;28;20104;-51
2021/11/10 09:13:11;;;;;;;10.23;6.72;;;7.20;99.90;;;;;;5066329;28;20210;-50
2021/11/10 09:15:36;;;;;;;11.57;6.55;;;7.20;99.90;;;;;;5056646;28;20469;-49
2021/11/10 09:18:05;;;;;;;13.93;5.93;;;7.20;99.90;;;;;;5057984;28;20056;-49
2021/11/10 09:20:32;;;;;;;10.98;6.72;;;7.30;99.90;;;;;;5059994;28;20024;-48
2021/11/10 09:23:00;;;;;;;14.05;6.80;;;7.30;99.90;;;;;;5057700;28;20063;-50
2021/11/10 09:25:29;;;;;;;10.95;6.75;;;7.30;99.90;;;;;;5055783;28;20045;-49
2021/11/10 09:27:56;;;;;;;10.90;6.28;;;7.30;99.90;;;;;;5050515;28;20033;-50
2021/11/10 09:30:23;;;;;;;9.48;6.05;;;7.40;99.90;;;;;;5058538;28;20087;-51
2021/11/10 09:32:51;;;;;;;11.43;6.78;;;7.40;99.90;;;;;;5075189;28;20099;-49
2021/11/10 09:35:18;;;;;;;9.52;6.40;;;7.40;99.90;;;;;;5058027;28;20025;-50
2021/11/10 09:37:44;;;;;;;10.55;6.03;;;7.50;99.90;;;;;;5052057;28;20425;-48
2021/11/10 09:40:13;;;;;;;9.88;6.30;;;7.50;99.90;;;;;;5075538;28;20659;-50
2021/11/10 09:42:41;;;;;;;12.98;6.15;;;7.60;99.90;;;;;;5081376;28;20086;-50
2021/11/10 09:45:09;;;;;;;14.23;6.15;;;7.70;99.90;;;;;;5068986;28;20028;-49
2021/11/10 09:47:39;;;;;;;10.52;6.38;;;7.80;99.90;;;;;;5080574;28;20373;-51
2021/11/10 09:50:06;;;;;;;10.73;5.97;;;8.00;99.90;;;;;;5063934;28;20070;-51
2021/11/10 09:52:31;;;;;;;8.35;5.45;;;8.10;99.90;;;;;;5059119;28;20097;-51
2021/11/10 09:54:57;;;;;;;8.68;5.82;;;8.50;99.90;;;;;;5059922;28;20423;-51
2021/11/10 09:57:24;;;;;;;11.10;5.50;;;9.90;99.90;;;;;;5058553;28;20025;-50
2021/11/10 09:59:50;;;;;;;10.43;4.93;;;11.60;99.90;;;;;;5058611;28;20535;-52
2021/11/10 10:02:16;;;;;;;12.75;6.15;;;12.90;99.90;;;;;;5056622;28;20032;-52
2021/11/10 10:04:43;;;;;;;10.57;5.28;;;14.00;96.90;;;;;;5056601;28;20036;-52
2021/11/10 10:07:10;;;;;;;14.35;6.28;;;15.20;95.40;;;;;;5064853;28;20025;-52
2021/11/10 10:09:36;;;;;;;13.30;5.40;;;15.50;91.00;;;;;;5057854;28;20483;-52
2021/11/10 10:12:03;;;;;;;8.15;5.25;;;15.90;87.50;;;;;;5058442;28;20372;-52
2021/11/10 10:14:29;;;;;;;8.95;4.65;;;15.90;88.20;;;;;;5056480;28;20017;-51
2021/11/10 10:16:56;;;;;;;8.98;4.68;;;15.90;87.40;;;;;;5055782;28;20032;-52
2021/11/10 10:19:23;;;;;;;8.98;4.90;;;15.50;85.50;;;;;;5065008;28;20101;-52
2021/11/10 10:21:59;;;;;;;7.20;4.00;;;15.10;86.00;;;;;;5072468;28;20430;-50
2021/11/10 10:24:25;;;;;;;7.50;4.40;;;14.60;89.20;;;;;;5065992;28;20488;-51
2021/11/10 10:26:50;;;;;;;9.52;4.72;;;14.30;89.20;;;;;;5055375;28;20163;-51
2021/11/10 10:29:17;;;;;;;6.97;4.75;;;14.10;89.70;;;;;;5061108;28;20055;-51
2021/11/10 10:31:43;;;;;;;9.40;5.22;;;14.30;91.10;;;;;;5061321;28;20152;-52
2021/11/10 10:34:14;;;;;;;7.30;4.25;;;14.70;91.30;;;;;;5061772;28;20162;-52
2021/11/10 10:36:44;;;;;;;10.32;5.10;;;15.30;89.70;;;;;;5057817;28;20061;-51
2021/11/10 10:39:18;;;;;;;7.43;4.47;;;14.90;87.40;;;;;;5055116;28;20009;-51
2021/11/10 10:41:47;;;;;;;6.82;4.55;;;14.40;90.40;;;;;;5064114;28;20408;-49
2021/11/10 10:44:17;;;;;;;7.63;4.50;;;13.80;91.30;;;;;;5055593;28;20467;-49
2021/11/10 10:46:46;;;;;;;11.70;5.47;;;13.40;91.60;;;;;;5056799;28;20163;-51
2021/11/10 10:49:18;;;;;;;6.97;4.80;;;13.20;92.80;;;;;;5063612;28;20032;-51
2021/11/10 10:52:15;;;;;;;10.50;4.63;;;13.90;92.30;;;;;;5060640;28;20021;-51
2021/11/10 10:54:42;;;;;;;9.05;4.55;;;15.00;90.30;;;;;;5044176;28;20113;-52
2021/11/10 10:57:09;;;;;;;7.68;4.68;;;16.00;89.90;;;;;;5065844;28;20032;-52
2021/11/10 10:59:35;;;;;;;10.57;5.10;;;16.90;84.00;;;;;;5073211;28;20525;-52
2021/11/10 11:02:03;;;;;;;7.30;4.57;;;17.60;80.10;;;;;;5066781;28;20020;-52
2021/11/10 11:04:31;;;;;;;5.68;4.22;;;17.50;78.00;;;;;;5068162;28;20109;-52
2021/11/10 11:07:08;;;;;;;7.00;4.13;;;18.10;78.10;;;;;;5071205;28;20012;-52
2021/11/10 11:09:41;;;;;;;8.32;4.88;;;18.50;74.80;;;;;;5080532;28;20024;-52
2021/11/10 11:12:18;;;;;;;7.65;4.13;;;18.90;72.70;;;;;;5070976;28;20039;-53
2021/11/10 11:14:54;;;;;;;7.78;4.80;;;19.40;72.90;;;;;;5057070;28;20025;-53
2021/11/10 11:17:41;;;;;;;6.57;3.75;;;19.40;70.80;;;;;;5068988;28;20032;-53
2021/11/10 11:20:07;;;;;;;5.90;4.20;;;19.70;66.50;;;;;;5071142;28;20107;-54
2021/11/10 11:22:34;;;;;;;7.50;4.03;;;19.90;68.00;;;;;;5061807;28;20124;-54
2021/11/10 11:25:10;;;;;;;6.07;4.28;;;20.10;63.90;;;;;;5050911;28;20029;-54
2021/11/10 11:27:35;;;;;;;4.80;3.78;;;19.60;66.40;;;;;;5070552;28;20028;-53
2021/11/10 11:30:11;;;;;;;12.80;4.55;;;19.20;65.90;;;;;;5055052;28;20040;-54
2021/11/10 11:32:46;;;;;;;8.52;4.15;;;19.20;65.10;;;;;;5077325;28;20319;-53
2021/11/10 11:35:30;;;;;;;5.95;3.95;;;18.90;65.90;;;;;;5091104;28;20119;-53
2021/11/10 11:38:00;;;;;;;8.48;4.80;;;18.60;64.70;;;;;;5073201;28;20037;-53
2021/11/10 11:40:29;;;;;;;8.02;4.93;;;18.30;66.50;;;;;;5082696;28;20047;-53
2021/11/10 11:42:56;;;;;;;9.10;4.60;;;18.20;66.40;;;;;;5090916;28;20028;-53
2021/11/10 11:45:23;;;;;;;11.10;3.97;;;17.80;68.60;;;;;;5080380;28;20028;-53
2021/11/10 11:47:50;;;;;;;6.72;3.80;;;17.30;69.90;;;;;;5063974;28;20493;-53
2021/11/10 11:50:18;;;;;;;8.52;3.95;;;16.70;71.40;;;;;;5068352;28;20035;-53
2021/11/10 11:52:45;;;;;;;9.80;4.40;;;16.40;71.40;;;;;;5063026;28;20021;-52
2021/11/10 11:55:23;;;;;;;8.38;4.75;;;15.80;72.20;;;;;;5050763;28;20025;-53
2021/11/10 11:58:05;;;;;;;7.97;4.13;;;15.40;74.60;;;;;;5050124;28;20025;-52
2021/11/10 12:00:36;;;;;;;8.50;4.43;;;15.40;75.00;;;;;;5050394;28;20044;-53
2021/11/10 12:03:27;;;;;;;7.65;3.85;;;15.50;75.20;;;;;;5049797;28;20040;-53
2021/11/10 12:06:15;;;;;;;10.65;4.95;;;15.70;74.10;;;;;;5075486;28;20108;-52
2021/11/10 12:08:47;;;;;;;8.48;4.45;;;15.90;74.10;;;;;;5071638;28;20078;-53
2021/11/10 12:11:16;;;;;;;7.55;4.00;;;16.20;74.50;;;;;;5061676;28;20039;-52
2021/11/10 12:14:04;;;;;;;6.70;4.35;;;16.40;72.30;;;;;;5059532;28;20074;-53
2021/11/10 12:16:57;;;;;;;7.57;4.28;;;16.30;72.80;;;;;;5059080;28;20247;-53
2021/11/10 12:19:34;;;;;;;8.90;4.53;;;16.10;73.30;;;;;;5060846;28;20443;-52
2021/11/10 12:22:01;;;;;;;8.68;5.10;;;15.90;73.00;;;;;;5062248;28;20099;-52
2021/11/10 12:24:48;;;;;;;6.15;3.83;;;15.50;72.90;;;;;;5050155;28;20021;-52
2021/11/10 12:27:16;;;;;;;12.80;5.50;;;15.30;74.70;;;;;;5059480;28;20135;-52
2021/11/10 12:29:47;;;;;;;12.00;4.85;;;14.70;74.10;;;;;;5079013;28;20028;-51
2021/11/10 12:32:14;;;;;;;7.93;4.50;;;14.80;74.30;;;;;;5071437;28;20421;-52
2021/11/10 12:34:40;;;;;;;8.10;3.85;;;14.60;75.50;;;;;;5058299;28;20032;-52
2021/11/10 12:37:09;;;;;;;7.53;3.53;;;14.50;75.70;;;;;;5067227;28;20039;-51
2021/11/10 12:39:36;;;;;;;8.23;4.38;;;14.40;76.70;;;;;;5058536;28;20028;-53
2021/11/10 12:42:03;;;;;;;7.32;4.53;;;14.30;77.50;;;;;;5076784;28;20088;-53
2021/11/10 12:44:37;;;;;;;8.10;3.47;;;14.20;80.20;;;;;;5069689;28;20024;-55
2021/11/10 12:47:03;;;;;;;6.15;3.60;;;14.10;81.20;;;;;;5047658;28;20025;-53